Time;durP1;ratioP1;P1;durP2;ratioP2;P2;SDS_P1;SDS_P2;PMS_P1;PMS_P2;Temp;Humidity;BMP_temperature;BMP_pressure;BME280_temperature;BME280_humidity;BME280_pressure;Samples;Min_cycle;Max_cycle;Signal;HPM_P1;HPM_P2
2023/08/26 00:02:19;;;;;;;28.60;21.45;;;18.20;99.90;;;;;;7296605;32;20314;-58
2023/08/26 00:06:21;;;;;;;25.27;17.23;;;18.10;99.90;;;;;;7296075;32;20230;-57
2023/08/26 00:10:23;;;;;;;25.95;21.12;;;18.00;99.90;;;;;;7291106;32;20188;-57
2023/08/26 00:14:24;;;;;;;27.33;20.20;;;18.00;99.90;;;;;;7298025;32;20099;-57
2023/08/26 00:18:26;;;;;;;27.70;21.62;;;17.90;99.90;;;;;;7293922;32;20703;-56
2023/08/26 00:22:28;;;;;;;33.20;22.25;;;18.00;99.90;;;;;;7296698;32;20632;-56
2023/08/26 00:26:30;;;;;;;30.37;22.10;;;18.00;99.90;;;;;;7296043;32;20229;-57
2023/08/26 00:30:31;;;;;;;34.22;21.25;;;18.00;99.90;;;;;;7296817;32;20183;-57
2023/08/26 00:34:33;;;;;;;22.48;16.58;;;18.10;99.90;;;;;;7296435;32;20157;-56
2023/08/26 00:38:35;;;;;;;20.90;15.40;;;18.00;99.90;;;;;;7297733;32;20210;-56
2023/08/26 00:42:37;;;;;;;19.35;15.00;;;18.00;99.90;;;;;;7295991;32;20228;-57
2023/08/26 00:46:39;;;;;;;22.02;14.55;;;18.00;99.90;;;;;;7297091;32;20112;-56
2023/08/26 00:50:43;;;;;;;18.90;14.07;;;17.90;99.90;;;;;;7299687;32;20416;-56
2023/08/26 00:54:45;;;;;;;21.60;12.95;;;17.90;99.90;;;;;;7298835;32;20281;-57
2023/08/26 00:58:47;;;;;;;20.48;14.13;;;17.80;99.90;;;;;;7293791;32;20178;-57
2023/08/26 01:02:49;;;;;;;17.60;13.73;;;17.80;99.90;;;;;;7292465;32;20107;-56
2023/08/26 01:06:51;;;;;;;17.10;12.25;;;17.70;99.90;;;;;;7300073;32;20578;-57
2023/08/26 01:11:05;;;;;;;18.42;12.05;;;17.70;99.90;;;;;;7297652;32;20104;-56
2023/08/26 01:15:10;;;;;;;16.75;12.95;;;17.60;99.90;;;;;;7291759;32;20187;-56
2023/08/26 01:19:36;;;;;;;13.98;11.30;;;17.60;99.90;;;;;;7298738;32;20792;-56
2023/08/26 01:23:41;;;;;;;15.70;11.85;;;17.50;99.90;;;;;;7298434;32;20340;-57
2023/08/26 01:27:43;;;;;;;19.23;12.55;;;17.60;99.90;;;;;;7291947;32;20123;-56
2023/08/26 01:31:51;;;;;;;16.23;10.32;;;17.50;99.90;;;;;;7296499;32;20727;-57
2023/08/26 01:35:58;;;;;;;17.50;12.63;;;17.50;99.90;;;;;;7290373;32;20225;-56
2023/08/26 01:40:04;;;;;;;18.87;13.18;;;17.70;99.90;;;;;;7290767;32;20135;-56
2023/08/26 01:44:06;;;;;;;17.80;12.60;;;17.60;99.90;;;;;;7296299;32;20131;-58
2023/08/26 01:48:08;;;;;;;17.95;11.63;;;17.60;99.90;;;;;;7298873;32;20123;-56
2023/08/26 01:52:10;;;;;;;14.85;11.02;;;17.50;99.90;;;;;;7302858;32;20434;-57
2023/08/26 01:56:12;;;;;;;15.25;10.27;;;17.30;99.90;;;;;;7304769;32;20469;-57
2023/08/26 02:00:15;;;;;;;19.10;9.30;;;17.10;99.90;;;;;;7303561;32;20346;-56
2023/08/26 02:04:17;;;;;;;11.85;7.93;;;17.00;99.90;;;;;;7304855;32;20234;-56
2023/08/26 02:08:19;;;;;;;13.35;8.18;;;16.90;99.90;;;;;;7301465;32;20115;-56
2023/08/26 02:12:20;;;;;;;18.98;7.22;;;16.70;99.90;;;;;;7299195;32;20176;-56
2023/08/26 02:16:22;;;;;;;8.90;5.00;;;16.60;99.90;;;;;;7303972;32;20095;-56
2023/08/26 02:20:24;;;;;;;7.93;5.05;;;16.30;99.90;;;;;;7303754;32;20096;-56
2023/08/26 02:24:26;;;;;;;6.75;4.30;;;16.30;99.90;;;;;;7300538;32;20164;-56
2023/08/26 02:28:27;;;;;;;7.85;3.90;;;16.10;99.90;;;;;;7296844;32;20219;-57
2023/08/26 02:32:29;;;;;;;5.62;3.50;;;16.00;99.90;;;;;;7301731;32;20122;-56
2023/08/26 02:36:31;;;;;;;6.57;2.47;;;15.90;99.90;;;;;;7300416;32;20126;-56
2023/08/26 02:40:33;;;;;;;9.75;2.17;;;15.70;99.90;;;;;;7296014;32;20154;-56
2023/08/26 02:44:35;;;;;;;4.87;1.50;;;15.50;99.90;;;;;;7285908;32;20322;-55
2023/08/26 02:48:37;;;;;;;4.18;1.75;;;15.50;99.90;;;;;;7299269;32;20595;-57
2023/08/26 02:52:39;;;;;;;4.25;1.80;;;15.30;99.90;;;;;;7283585;32;20209;-56
2023/08/26 02:56:40;;;;;;;3.97;1.50;;;15.30;99.90;;;;;;7295717;32;20556;-58
2023/08/26 03:00:42;;;;;;;4.55;1.50;;;15.20;99.90;;;;;;7293679;32;20231;-57
2023/08/26 03:04:44;;;;;;;6.60;1.83;;;15.10;99.90;;;;;;7300054;32;20138;-56
2023/08/26 03:08:46;;;;;;;6.18;1.70;;;15.10;99.90;;;;;;7294633;32;20934;-57
2023/08/26 03:12:48;;;;;;;9.55;1.77;;;15.00;99.90;;;;;;7298116;32;20358;-57
2023/08/26 03:16:50;;;;;;;3.75;1.70;;;14.90;99.90;;;;;;7301639;32;21171;-56
2023/08/26 03:20:51;;;;;;;9.43;1.98;;;14.80;99.90;;;;;;7300586;32;20123;-56
2023/08/26 03:24:53;;;;;;;5.30;1.87;;;14.80;99.90;;;;;;7300249;32;20183;-56
2023/08/26 03:28:55;;;;;;;4.30;1.80;;;14.70;99.90;;;;;;7302210;32;20111;-56
2023/08/26 03:32:57;;;;;;;8.15;1.90;;;14.70;99.90;;;;;;7298297;32;20158;-56
2023/08/26 03:36:58;;;;;;;9.73;2.05;;;14.60;99.90;;;;;;7299892;32;20522;-56
2023/08/26 03:41:04;;;;;;;5.95;2.17;;;14.60;99.90;;;;;;7297315;32;20126;-57
2023/08/26 03:45:07;;;;;;;5.47;1.98;;;14.50;99.90;;;;;;7293567;32;20121;-56
2023/08/26 03:49:08;;;;;;;7.78;1.90;;;14.40;99.90;;;;;;7294213;32;20531;-56
2023/08/26 03:53:10;;;;;;;5.40;2.15;;;14.40;99.90;;;;;;7295963;32;20107;-56
2023/08/26 03:57:12;;;;;;;4.20;1.77;;;14.30;99.90;;;;;;7300008;32;20482;-56
2023/08/26 04:01:14;;;;;;;4.80;1.65;;;14.30;99.90;;;;;;7299673;32;20231;-56
2023/08/26 04:05:16;;;;;;;8.00;2.15;;;14.30;99.90;;;;;;7294513;32;20104;-57
2023/08/26 04:09:18;;;;;;;8.48;1.67;;;14.30;99.90;;;;;;7296721;32;20201;-56
2023/08/26 04:13:25;;;;;;;6.32;1.90;;;14.20;99.90;;;;;;7301742;32;20174;-57
2023/08/26 04:17:27;;;;;;;9.43;2.62;;;14.20;99.90;;;;;;7295389;32;20258;-56
2023/08/26 04:21:29;;;;;;;7.25;1.98;;;14.20;99.90;;;;;;7293188;32;20637;-56
2023/08/26 04:25:32;;;;;;;3.83;1.35;;;14.10;99.90;;;;;;7298681;32;20800;-56
2023/08/26 04:29:33;;;;;;;7.05;1.90;;;14.00;99.90;;;;;;7296681;32;20127;-56
2023/08/26 04:33:36;;;;;;;10.15;2.17;;;14.10;99.90;;;;;;7298948;32;20787;-56
2023/08/26 04:37:38;;;;;;;7.85;1.73;;;14.00;99.90;;;;;;7295490;32;20104;-56
2023/08/26 04:41:40;;;;;;;6.82;1.77;;;14.00;99.90;;;;;;7298558;32;20216;-56
2023/08/26 04:45:42;;;;;;;10.30;1.98;;;14.00;99.90;;;;;;7300674;32;20126;-56
2023/08/26 04:49:43;;;;;;;5.85;1.67;;;14.00;99.90;;;;;;7299657;32;20127;-56
2023/08/26 04:53:45;;;;;;;7.72;2.12;;;14.00;99.90;;;;;;7300321;32;20186;-55
2023/08/26 04:57:47;;;;;;;7.45;2.25;;;14.00;99.90;;;;;;7282133;32;20151;-56
2023/08/26 05:01:49;;;;;;;5.80;1.80;;;13.90;99.90;;;;;;7285592;32;20183;-55
2023/08/26 05:05:51;;;;;;;6.32;1.70;;;14.00;99.90;;;;;;7296787;32;20127;-56
2023/08/26 05:09:53;;;;;;;11.60;2.10;;;13.90;99.90;;;;;;7297840;32;20108;-56
2023/08/26 05:13:54;;;;;;;6.65;1.80;;;13.90;99.90;;;;;;7294478;32;20786;-56
2023/08/26 05:17:56;;;;;;;6.12;1.70;;;13.90;99.90;;;;;;7293655;32;20114;-56
2023/08/26 05:21:59;;;;;;;5.53;1.35;;;13.90;99.90;;;;;;7283171;32;20166;-56
2023/08/26 05:26:00;;;;;;;4.80;1.58;;;14.00;99.90;;;;;;7292469;32;20294;-56
2023/08/26 05:30:04;;;;;;;6.82;1.77;;;14.00;99.90;;;;;;7285349;32;20128;-57
2023/08/26 05:34:05;;;;;;;5.28;1.58;;;14.00;99.90;;;;;;7299134;32;20126;-57
2023/08/26 05:38:07;;;;;;;5.78;1.30;;;14.00;99.90;;;;;;7292795;32;20128;-56
2023/08/26 05:42:09;;;;;;;4.25;1.40;;;14.00;99.90;;;;;;7296641;32;20690;-56
2023/08/26 05:46:10;;;;;;;6.22;1.30;;;14.00;99.90;;;;;;7292074;32;20135;-57
2023/08/26 05:50:13;;;;;;;7.82;1.70;;;14.10;99.90;;;;;;7296677;32;20144;-56
2023/08/26 05:54:14;;;;;;;6.43;1.75;;;14.10;99.90;;;;;;7297770;32;20134;-56
2023/08/26 05:58:16;;;;;;;3.10;1.50;;;14.20;99.90;;;;;;7298624;32;20916;-56
2023/08/26 06:02:18;;;;;;;4.53;1.90;;;14.20;99.90;;;;;;7288938;32;20568;-55
2023/08/26 06:06:19;;;;;;;5.75;1.50;;;14.30;99.90;;;;;;7293793;32;20088;-57
2023/08/26 06:10:21;;;;;;;2.85;1.30;;;14.30;99.90;;;;;;7299110;32;20207;-56
2023/08/26 06:14:23;;;;;;;5.78;1.37;;;14.40;99.90;;;;;;7302367;32;20108;-55
2023/08/26 06:18:25;;;;;;;6.35;1.10;;;14.60;99.90;;;;;;7299265;32;20474;-57
2023/08/26 06:22:27;;;;;;;3.72;1.12;;;14.60;99.90;;;;;;7299158;32;20107;-56
2023/08/26 06:26:29;;;;;;;2.33;0.90;;;14.70;99.90;;;;;;7291034;32;20270;-56
2023/08/26 06:30:30;;;;;;;4.10;1.20;;;14.80;99.90;;;;;;7296629;32;20124;-56
2023/08/26 06:34:32;;;;;;;6.03;0.93;;;15.00;99.90;;;;;;7297477;32;20569;-56
2023/08/26 06:38:34;;;;;;;3.65;1.45;;;15.00;99.90;;;;;;7302292;32;20107;-57
2023/08/26 06:42:35;;;;;;;3.47;0.90;;;15.20;99.90;;;;;;7302837;32;20137;-57
2023/08/26 06:46:40;;;;;;;3.85;1.00;;;15.20;99.90;;;;;;7301180;32;20522;-57
2023/08/26 06:50:42;;;;;;;4.28;0.95;;;15.40;99.90;;;;;;7300311;32;20510;-55
2023/08/26 06:54:43;;;;;;;4.85;1.15;;;15.30;99.90;;;;;;7304293;32;20344;-57
2023/08/26 06:58:45;;;;;;;6.78;1.25;;;15.40;99.90;;;;;;7298616;32;20122;-59
2023/08/26 07:02:47;;;;;;;2.75;0.80;;;15.50;99.90;;;;;;7300303;32;20096;-59
2023/08/26 07:06:50;;;;;;;5.05;1.25;;;15.60;99.90;;;;;;7293943;32;20116;-58
2023/08/26 07:10:54;;;;;;;2.50;0.88;;;15.60;99.90;;;;;;7298526;32;20124;-59
2023/08/26 07:14:56;;;;;;;5.30;1.15;;;15.80;99.90;;;;;;7297943;32;20366;-59
2023/08/26 07:18:58;;;;;;;3.33;1.10;;;15.90;99.90;;;;;;7294356;32;20096;-57
2023/08/26 07:23:00;;;;;;;2.20;1.20;;;15.90;99.90;;;;;;7304847;32;20120;-58
2023/08/26 07:27:01;;;;;;;3.47;0.93;;;16.00;99.90;;;;;;7302537;32;20176;-55
2023/08/26 07:31:05;;;;;;;2.92;0.85;;;16.10;99.90;;;;;;7298378;32;20238;-57
2023/08/26 07:35:09;;;;;;;5.40;1.40;;;16.20;99.90;;;;;;7298834;32;20194;-57
2023/08/26 07:39:11;;;;;;;8.05;1.10;;;16.20;99.90;;;;;;7301502;32;20127;-57
2023/08/26 07:43:12;;;;;;;1.85;0.80;;;16.30;99.90;;;;;;7302317;32;20115;-57
2023/08/26 07:47:14;;;;;;;4.05;1.00;;;16.30;99.90;;;;;;7298211;32;20139;-57
2023/08/26 07:51:16;;;;;;;4.03;0.88;;;16.40;99.90;;;;;;7299005;32;20132;-57
2023/08/26 07:55:18;;;;;;;5.12;0.90;;;16.50;99.90;;;;;;7299882;32;20104;-57
2023/08/26 07:59:20;;;;;;;5.80;0.80;;;16.50;99.90;;;;;;7300402;32;20170;-59
2023/08/26 08:03:21;;;;;;;2.75;0.82;;;16.60;99.90;;;;;;7295429;32;21903;-57
2023/08/26 08:07:23;;;;;;;1.95;0.50;;;16.60;99.90;;;;;;7299828;32;20499;-56
2023/08/26 08:11:25;;;;;;;1.92;1.00;;;16.70;99.90;;;;;;7302190;32;20111;-56
2023/08/26 08:15:27;;;;;;;5.05;0.93;;;16.80;99.90;;;;;;7298198;32;20337;-56
2023/08/26 08:19:29;;;;;;;4.20;0.73;;;16.90;99.90;;;;;;7296312;32;20186;-57
2023/08/26 08:23:31;;;;;;;8.35;0.73;;;16.90;99.90;;;;;;7298953;32;20120;-57
2023/08/26 08:27:32;;;;;;;3.30;0.70;;;17.10;99.90;;;;;;7293619;32;20108;-55
2023/08/26 08:31:34;;;;;;;6.50;1.20;;;17.20;99.90;;;;;;7292969;32;20189;-56
2023/08/26 08:35:37;;;;;;;3.33;0.80;;;17.30;99.90;;;;;;7290070;32;20198;-57
2023/08/26 08:39:38;;;;;;;4.53;1.27;;;17.40;99.90;;;;;;7293760;32;20294;-60
2023/08/26 08:43:45;;;;;;;4.32;0.77;;;17.70;99.90;;;;;;7290296;32;20096;-55
2023/08/26 08:47:50;;;;;;;3.37;0.60;;;18.60;99.90;;;;;;7284052;32;20552;-57
2023/08/26 08:51:52;;;;;;;2.28;0.60;;;20.10;99.90;;;;;;7288514;32;20162;-56
2023/08/26 08:55:54;;;;;;;3.17;0.70;;;20.10;99.90;;;;;;7291774;32;20095;-57
2023/08/26 08:59:57;;;;;;;4.00;0.80;;;19.70;99.90;;;;;;7280150;32;20203;-58
2023/08/26 09:03:59;;;;;;;2.97;0.80;;;19.80;99.90;;;;;;7291374;32;20096;-56
2023/08/26 09:08:02;;;;;;;4.62;1.02;;;20.20;99.90;;;;;;7296297;32;20317;-56
2023/08/26 09:12:06;;;;;;;2.80;0.82;;;20.50;99.90;;;;;;7295152;32;20930;-57
2023/08/26 09:16:08;;;;;;;2.97;0.70;;;21.50;99.90;;;;;;7292493;32;20289;-57
2023/08/26 09:20:10;;;;;;;5.10;0.90;;;21.10;99.90;;;;;;7294543;32;20511;-56
2023/08/26 09:24:13;;;;;;;2.12;0.80;;;21.20;99.90;;;;;;7293204;32;20099;-57
2023/08/26 09:28:15;;;;;;;2.87;0.65;;;21.10;99.90;;;;;;7296094;32;20125;-57
2023/08/26 09:32:33;;;;;;;2.70;0.65;;;21.10;99.90;;;;;;7292906;32;20162;-57
2023/08/26 09:36:39;;;;;;;3.40;0.57;;;21.50;99.90;;;;;;7297799;32;20222;-58
2023/08/26 09:40:41;;;;;;;3.13;0.70;;;22.00;99.90;;;;;;7296923;32;20092;-58
2023/08/26 09:44:43;;;;;;;1.48;0.40;;;22.10;99.90;;;;;;7292711;32;20644;-57
2023/08/26 09:48:46;;;;;;;1.20;0.60;;;22.60;99.90;;;;;;7289910;32;20115;-57
2023/08/26 09:52:51;;;;;;;2.95;0.52;;;23.10;99.90;;;;;;7294984;32;20257;-57
2023/08/26 09:56:52;;;;;;;2.30;0.50;;;23.90;99.90;;;;;;7292011;32;20461;-57
2023/08/26 10:00:54;;;;;;;1.73;0.73;;;23.70;99.90;;;;;;7292874;32;20331;-57
2023/08/26 10:05:05;;;;;;;3.62;0.75;;;24.00;99.90;;;;;;7294992;32;20186;-57
2023/08/26 10:09:19;;;;;;;2.22;0.62;;;24.50;99.90;;;;;;7280091;32;20108;-57
2023/08/26 10:13:27;;;;;;;2.55;0.43;;;24.10;99.90;;;;;;7301399;32;20128;-57
2023/08/26 10:17:31;;;;;;;1.40;0.30;;;24.40;99.90;;;;;;7301428;32;20881;-57
2023/08/26 10:21:35;;;;;;;1.37;0.30;;;24.90;99.90;;;;;;7300370;32;20246;-57
2023/08/26 10:25:37;;;;;;;0.88;0.43;;;25.10;99.90;;;;;;7294202;32;20166;-62
2023/08/26 10:29:40;;;;;;;2.15;0.57;;;25.30;99.90;;;;;;7301103;32;20673;-61
2023/08/26 10:34:15;;;;;;;1.33;0.30;;;24.90;99.90;;;;;;7297702;32;20707;-63
2023/08/26 10:38:17;;;;;;;1.83;0.52;;;24.50;99.90;;;;;;7293740;32;20091;-62
2023/08/26 10:42:20;;;;;;;2.28;0.40;;;24.50;99.90;;;;;;7293838;32;20832;-58
2023/08/26 10:46:36;;;;;;;3.80;0.47;;;23.80;99.90;;;;;;7301671;32;20131;-57
2023/08/26 10:50:41;;;;;;;2.53;0.40;;;24.10;99.90;;;;;;7298896;32;20226;-57
2023/08/26 10:54:46;;;;;;;1.35;0.50;;;23.80;99.90;;;;;;7299921;32;20544;-58
2023/08/26 10:58:49;;;;;;;2.87;0.55;;;23.80;99.90;;;;;;7294119;32;20108;-57
2023/08/26 11:02:51;;;;;;;2.05;0.60;;;23.70;99.90;;;;;;7302199;32;20161;-58
2023/08/26 11:06:54;;;;;;;2.05;0.50;;;23.00;99.90;;;;;;7293810;32;20174;-57
2023/08/26 11:10:56;;;;;;;1.73;0.50;;;22.90;99.90;;;;;;7299785;32;20120;-58
2023/08/26 11:15:05;;;;;;;1.62;0.50;;;23.10;99.90;;;;;;7300068;32;20250;-58
2023/08/26 11:19:08;;;;;;;1.52;0.40;;;23.00;99.90;;;;;;7302331;32;20276;-58
2023/08/26 11:23:10;;;;;;;1.55;0.80;;;23.30;99.90;;;;;;7294540;32;20274;-58
2023/08/26 11:27:12;;;;;;;0.98;0.47;;;23.30;99.90;;;;;;7297865;32;20165;-58
2023/08/26 11:31:15;;;;;;;1.70;0.40;;;23.10;99.90;;;;;;7296233;32;20245;-57
2023/08/26 11:35:17;;;;;;;1.33;0.40;;;22.60;99.90;;;;;;7289742;32;20096;-58
2023/08/26 11:39:19;;;;;;;1.37;0.30;;;22.60;99.90;;;;;;7298494;32;20583;-56
2023/08/26 11:43:21;;;;;;;1.25;0.40;;;22.30;99.90;;;;;;7300517;32;20131;-57
2023/08/26 11:47:24;;;;;;;1.23;0.40;;;21.90;99.90;;;;;;7296492;32;20115;-57
2023/08/26 11:51:27;;;;;;;2.80;0.60;;;21.80;99.90;;;;;;7296529;32;20130;-57
2023/08/26 11:55:30;;;;;;;1.75;0.50;;;21.90;99.90;;;;;;7299186;32;20175;-57
2023/08/26 11:59:39;;;;;;;2.05;0.50;;;21.60;99.90;;;;;;7288515;32;20237;-56
2023/08/26 12:03:42;;;;;;;1.67;0.50;;;21.20;99.90;;;;;;7271394;32;20339;-57
2023/08/26 12:07:51;;;;;;;0.98;0.37;;;21.10;99.90;;;;;;7291601;32;20123;-58
2023/08/26 12:11:53;;;;;;;5.28;0.70;;;21.40;99.90;;;;;;7283835;32;20096;-57
2023/08/26 12:15:57;;;;;;;1.55;0.57;;;21.90;99.90;;;;;;7298191;32;20103;-58
2023/08/26 12:19:59;;;;;;;1.23;0.50;;;22.30;99.90;;;;;;7299211;32;20209;-58
2023/08/26 12:24:04;;;;;;;3.35;0.50;;;22.50;99.90;;;;;;7294551;32;20100;-59
2023/08/26 12:28:18;;;;;;;1.40;0.62;;;22.40;99.90;;;;;;7298096;32;20201;-58
2023/08/26 12:32:19;;;;;;;1.92;0.60;;;22.00;99.90;;;;;;7289214;32;20227;-58
2023/08/26 12:36:21;;;;;;;1.50;0.60;;;21.80;99.90;;;;;;7293836;32;20127;-57
2023/08/26 12:40:23;;;;;;;1.48;0.60;;;21.80;99.90;;;;;;7296951;32;20191;-57
2023/08/26 12:44:25;;;;;;;2.55;0.60;;;21.90;99.90;;;;;;7296243;32;20091;-58
2023/08/26 12:48:26;;;;;;;3.35;0.60;;;22.00;99.90;;;;;;7293176;32;20520;-56
2023/08/26 12:52:48;;;;;;;0.68;0.45;;;21.90;99.90;;;;;;7286842;32;20105;-58
2023/08/26 12:56:50;;;;;;;2.17;0.60;;;21.80;99.90;;;;;;7302916;32;20196;-57
2023/08/26 13:00:52;;;;;;;1.67;0.62;;;22.00;99.90;;;;;;7300839;32;20170;-57
2023/08/26 13:04:54;;;;;;;4.22;0.45;;;22.50;99.90;;;;;;7297089;32;20112;-57
2023/08/26 13:08:55;;;;;;;1.62;0.40;;;22.60;99.90;;;;;;7302046;32;20104;-58
2023/08/26 13:12:57;;;;;;;4.00;0.70;;;22.60;99.90;;;;;;7296938;32;20127;-57
2023/08/26 13:16:59;;;;;;;0.65;0.40;;;22.20;99.90;;;;;;7296908;32;20638;-57
2023/08/26 13:21:01;;;;;;;1.95;0.50;;;22.30;99.90;;;;;;7296835;32;20118;-57
2023/08/26 13:25:03;;;;;;;2.33;0.70;;;22.20;99.90;;;;;;7294651;32;20120;-57
2023/08/26 13:29:05;;;;;;;2.70;0.70;;;22.50;99.90;;;;;;7296133;32;20099;-57
2023/08/26 13:33:08;;;;;;;3.47;0.65;;;22.50;99.90;;;;;;7301131;32;20527;-57
2023/08/26 13:37:10;;;;;;;2.03;0.60;;;22.70;99.90;;;;;;7299046;32;20253;-58
2023/08/26 13:41:11;;;;;;;2.17;0.62;;;22.70;99.90;;;;;;7285608;32;20127;-57
2023/08/26 13:45:13;;;;;;;2.92;0.98;;;22.80;99.90;;;;;;7298092;32;20208;-57
2023/08/26 13:49:15;;;;;;;2.95;0.50;;;22.90;99.90;;;;;;7305782;32;20124;-58
2023/08/26 13:53:17;;;;;;;2.87;0.68;;;23.20;99.90;;;;;;7304653;32;20139;-57
2023/08/26 13:57:19;;;;;;;2.35;0.70;;;23.40;99.90;;;;;;7302534;32;20537;-56
2023/08/26 14:01:20;;;;;;;1.83;0.77;;;23.30;99.90;;;;;;7296895;32;21058;-57
2023/08/26 14:05:28;;;;;;;2.15;0.62;;;23.30;99.90;;;;;;7302405;32;20513;-57
2023/08/26 14:09:29;;;;;;;1.52;0.55;;;23.50;99.90;;;;;;7298924;32;20536;-57
2023/08/26 14:13:31;;;;;;;1.27;0.50;;;23.60;99.90;;;;;;7293116;32;20138;-57
2023/08/26 14:17:34;;;;;;;3.17;0.70;;;23.30;99.90;;;;;;7302872;32;20095;-56
2023/08/26 14:21:37;;;;;;;3.12;0.60;;;23.30;99.90;;;;;;7297311;32;20214;-57
2023/08/26 14:25:40;;;;;;;1.17;0.60;;;23.20;99.90;;;;;;7300161;32;20172;-57
2023/08/26 14:29:42;;;;;;;1.70;0.70;;;23.20;99.90;;;;;;7301466;32;20195;-57
2023/08/26 14:33:45;;;;;;;3.40;0.60;;;23.30;99.90;;;;;;7303450;32;20601;-57
2023/08/26 14:37:47;;;;;;;3.62;0.70;;;23.50;99.90;;;;;;7297768;32;20491;-57
2023/08/26 14:41:49;;;;;;;3.22;0.60;;;23.50;99.90;;;;;;7304090;32;20524;-57
2023/08/26 14:45:50;;;;;;;3.33;0.70;;;23.90;99.90;;;;;;7303166;32;20691;-57
2023/08/26 14:49:52;;;;;;;3.10;0.70;;;24.40;99.90;;;;;;7306726;32;20157;-57
2023/08/26 14:53:54;;;;;;;1.80;0.75;;;24.10;99.90;;;;;;7298916;32;20108;-57
2023/08/26 14:57:55;;;;;;;2.20;0.70;;;23.40;99.90;;;;;;7303746;32;20127;-57
2023/08/26 15:01:58;;;;;;;3.00;0.52;;;23.10;99.90;;;;;;7301198;32;20157;-57
2023/08/26 15:06:01;;;;;;;1.73;0.52;;;23.30;99.90;;;;;;7292195;32;20217;-57
2023/08/26 15:10:04;;;;;;;1.12;0.40;;;23.00;99.90;;;;;;7299601;32;20358;-57
2023/08/26 15:14:06;;;;;;;3.87;0.68;;;22.90;99.90;;;;;;7296596;32;20126;-57
2023/08/26 15:18:07;;;;;;;1.83;0.60;;;22.80;99.90;;;;;;7299421;32;20526;-57
2023/08/26 15:22:09;;;;;;;1.55;0.65;;;22.60;99.90;;;;;;7300924;32;20154;-57
2023/08/26 15:26:11;;;;;;;5.70;0.70;;;22.60;99.90;;;;;;7295683;32;20534;-57
2023/08/26 15:30:13;;;;;;;1.98;0.57;;;22.50;99.90;;;;;;7298124;32;20134;-57
2023/08/26 15:34:15;;;;;;;1.40;0.57;;;22.50;99.90;;;;;;7298532;32;20100;-58
2023/08/26 15:38:17;;;;;;;1.58;0.62;;;22.40;99.90;;;;;;7300526;32;20166;-56
2023/08/26 15:42:18;;;;;;;2.58;0.70;;;22.40;99.90;;;;;;7288679;32;20186;-57
2023/08/26 15:46:20;;;;;;;3.97;0.80;;;22.50;99.90;;;;;;7283692;32;20103;-57
2023/08/26 15:50:22;;;;;;;1.48;0.70;;;22.50;99.90;;;;;;7298280;32;20092;-57
2023/08/26 15:54:24;;;;;;;3.87;0.68;;;22.50;99.90;;;;;;7298284;32;20601;-57
2023/08/26 15:58:25;;;;;;;2.70;0.80;;;22.60;99.90;;;;;;7295938;32;20506;-60
2023/08/26 16:02:27;;;;;;;1.52;0.60;;;22.50;99.90;;;;;;7292940;32;20096;-57
2023/08/26 16:06:29;;;;;;;2.58;1.25;;;22.40;99.90;;;;;;7287939;32;20130;-57
2023/08/26 16:10:31;;;;;;;3.60;0.73;;;22.50;99.90;;;;;;7299403;32;20186;-57
2023/08/26 16:14:33;;;;;;;2.58;0.80;;;22.40;99.90;;;;;;7300228;32;20092;-58
2023/08/26 16:18:35;;;;;;;2.17;0.70;;;22.50;99.90;;;;;;7297992;32;20687;-56
2023/08/26 16:22:37;;;;;;;1.92;0.68;;;22.30;99.90;;;;;;7302666;32;20226;-57
2023/08/26 16:26:39;;;;;;;2.70;0.77;;;22.10;99.90;;;;;;7300797;32;20153;-56
2023/08/26 16:30:41;;;;;;;1.17;0.62;;;22.10;99.90;;;;;;7299714;32;20227;-57
2023/08/26 16:34:43;;;;;;;2.92;0.88;;;21.90;99.90;;;;;;7301180;32;20100;-58
2023/08/26 16:38:44;;;;;;;3.10;1.37;;;22.00;99.90;;;;;;7301223;32;20104;-57
2023/08/26 16:42:46;;;;;;;2.35;0.60;;;22.00;99.90;;;;;;7300307;32;20747;-58
2023/08/26 16:46:48;;;;;;;1.60;0.90;;;21.90;99.90;;;;;;7291794;32;20154;-57
2023/08/26 16:50:51;;;;;;;3.20;0.68;;;21.80;99.90;;;;;;7293133;32;20168;-57
2023/08/26 16:54:52;;;;;;;2.97;0.77;;;21.60;99.90;;;;;;7293588;32;20246;-56
2023/08/26 16:58:54;;;;;;;2.35;0.98;;;21.50;99.90;;;;;;7291082;32;20161;-56
2023/08/26 17:02:56;;;;;;;1.37;0.60;;;21.50;99.90;;;;;;7293634;32;20159;-56
2023/08/26 17:06:59;;;;;;;4.15;1.42;;;21.30;99.90;;;;;;7298500;32;20167;-58
2023/08/26 17:11:04;;;;;;;3.85;0.93;;;21.20;99.90;;;;;;7297256;32;20290;-57
2023/08/26 17:15:07;;;;;;;1.52;0.70;;;21.00;99.90;;;;;;7298120;32;20103;-57
2023/08/26 17:19:10;;;;;;;3.87;0.73;;;20.80;99.90;;;;;;7295840;32;20100;-58
2023/08/26 17:23:11;;;;;;;4.30;0.90;;;20.70;99.90;;;;;;7291921;32;21386;-57
2023/08/26 17:27:13;;;;;;;1.50;0.90;;;20.70;99.90;;;;;;7290889;32;20135;-56
2023/08/26 17:31:15;;;;;;;2.22;0.90;;;20.50;99.90;;;;;;7291814;32;20161;-56
2023/08/26 17:35:17;;;;;;;1.35;0.95;;;20.50;99.90;;;;;;7296898;32;20230;-56
2023/08/26 17:39:19;;;;;;;3.90;1.58;;;20.50;99.90;;;;;;7296385;32;20792;-56
2023/08/26 17:43:21;;;;;;;3.55;1.15;;;20.50;99.90;;;;;;7291573;32;20266;-57
2023/08/26 17:47:22;;;;;;;1.85;0.80;;;20.40;99.90;;;;;;7293924;32;20103;-56
2023/08/26 17:51:24;;;;;;;4.80;1.20;;;20.50;99.90;;;;;;7294253;32;20214;-58
2023/08/26 17:55:26;;;;;;;1.45;0.70;;;20.50;99.90;;;;;;7295054;32;20103;-57
2023/08/26 17:59:28;;;;;;;3.72;0.90;;;20.40;99.90;;;;;;7284713;32;20143;-57
2023/08/26 18:03:29;;;;;;;3.90;1.10;;;20.40;99.90;;;;;;7293684;32;20124;-56
2023/08/26 18:07:31;;;;;;;1.83;0.70;;;20.40;99.90;;;;;;7288329;32;20581;-56
2023/08/26 18:11:33;;;;;;;1.20;0.65;;;20.30;99.90;;;;;;7294781;32;20100;-56
2023/08/26 18:15:36;;;;;;;2.65;0.80;;;20.20;99.90;;;;;;7294433;32;20154;-57
2023/08/26 18:19:38;;;;;;;3.83;1.20;;;20.20;99.90;;;;;;7287320;32;20178;-57
2023/08/26 18:23:39;;;;;;;1.67;0.95;;;20.00;99.90;;;;;;7291233;32;20245;-57
2023/08/26 18:27:41;;;;;;;2.87;1.00;;;20.00;99.90;;;;;;7289774;32;20192;-56
2023/08/26 18:31:43;;;;;;;1.25;0.80;;;19.90;99.90;;;;;;7295389;32;20168;-57
2023/08/26 18:35:45;;;;;;;3.87;0.98;;;19.90;99.90;;;;;;7291522;32;20104;-56
2023/08/26 18:39:46;;;;;;;4.07;1.05;;;19.70;99.90;;;;;;7291573;32;20226;-57
2023/08/26 18:43:50;;;;;;;1.10;0.88;;;19.50;99.90;;;;;;7300102;32;20108;-56
2023/08/26 18:47:52;;;;;;;3.75;1.12;;;19.40;99.90;;;;;;7295274;32;20953;-55
2023/08/26 18:51:54;;;;;;;2.72;0.80;;;19.30;99.90;;;;;;7289858;32;20179;-56
2023/08/26 18:55:55;;;;;;;2.92;0.90;;;19.10;99.90;;;;;;7295912;32;20627;-56
2023/08/26 18:59:57;;;;;;;1.80;1.20;;;19.00;99.90;;;;;;7304320;32;20100;-57
2023/08/26 19:03:59;;;;;;;2.45;1.30;;;19.00;99.90;;;;;;7302498;32;20161;-58
2023/08/26 19:08:01;;;;;;;3.45;1.10;;;18.90;99.90;;;;;;7295332;32;20142;-57
2023/08/26 19:12:03;;;;;;;4.90;1.40;;;18.80;99.90;;;;;;7302704;32;20182;-57
2023/08/26 19:16:04;;;;;;;2.12;1.02;;;18.80;99.90;;;;;;7294249;32;20100;-57
2023/08/26 19:20:07;;;;;;;4.50;1.20;;;18.80;99.90;;;;;;7295622;32;20183;-56
2023/08/26 19:24:08;;;;;;;2.12;1.23;;;18.60;99.90;;;;;;7296183;32;20153;-57
2023/08/26 19:28:11;;;;;;;3.58;1.08;;;18.60;99.90;;;;;;7294555;32;20127;-57
2023/08/26 19:32:13;;;;;;;4.47;0.90;;;18.40;99.90;;;;;;7300330;32;20816;-57
2023/08/26 19:36:14;;;;;;;6.40;1.17;;;18.20;99.90;;;;;;7292309;32;20269;-56
2023/08/26 19:40:16;;;;;;;4.22;1.85;;;18.10;99.90;;;;;;7297877;32;20127;-57
2023/08/26 19:44:18;;;;;;;4.78;1.35;;;17.70;99.90;;;;;;7299408;32;20175;-56
2023/08/26 19:48:20;;;;;;;5.10;1.45;;;17.50;99.90;;;;;;7296471;32;20469;-56
2023/08/26 19:52:22;;;;;;;4.15;1.83;;;17.30;99.90;;;;;;7295382;32;20199;-56
2023/08/26 19:56:24;;;;;;;5.07;1.60;;;17.30;99.90;;;;;;7298747;32;20179;-56
2023/08/26 20:00:28;;;;;;;4.97;2.00;;;17.10;99.90;;;;;;7295263;32;20175;-56
2023/08/26 20:04:30;;;;;;;4.40;1.55;;;16.80;99.90;;;;;;7293585;32;20124;-57
2023/08/26 20:08:31;;;;;;;4.85;1.62;;;16.70;99.90;;;;;;7293247;32;20713;-57
2023/08/26 20:12:33;;;;;;;6.30;1.87;;;16.60;99.90;;;;;;7296315;32;21842;-56
2023/08/26 20:16:35;;;;;;;1.85;1.12;;;16.40;99.90;;;;;;7295026;32;20219;-55
2023/08/26 20:20:37;;;;;;;2.10;1.27;;;16.40;99.90;;;;;;7291113;32;20534;-56
2023/08/26 20:24:39;;;;;;;4.60;1.90;;;16.20;99.90;;;;;;7294400;32;20096;-57
2023/08/26 20:28:41;;;;;;;6.90;2.65;;;16.10;99.90;;;;;;7297185;32;20130;-58
2023/08/26 20:32:42;;;;;;;5.40;1.62;;;16.00;99.90;;;;;;7292189;32;20332;-57
2023/08/26 20:36:48;;;;;;;4.65;1.40;;;15.80;99.90;;;;;;7294777;32;20195;-57
2023/08/26 20:40:50;;;;;;;8.52;1.50;;;15.80;99.90;;;;;;7297787;32;20131;-57
2023/08/26 20:44:51;;;;;;;7.43;1.52;;;15.70;99.90;;;;;;7294206;32;20229;-56
2023/08/26 20:48:53;;;;;;;5.93;1.20;;;15.60;99.90;;;;;;7296017;32;20837;-58
2023/08/26 20:52:55;;;;;;;4.35;1.02;;;15.50;99.90;;;;;;7295148;32;20103;-57
2023/08/26 20:56:57;;;;;;;3.00;1.30;;;15.50;99.90;;;;;;7294663;32;20124;-57
2023/08/26 21:00:58;;;;;;;3.65;1.05;;;15.30;99.90;;;;;;7298131;32;20111;-57